createdAt,value
2023-07-25T00:00:51.319Z,1.55
2023-07-25T00:03:21.625Z,1.85
2023-07-25T00:05:51.661Z,1.70
2023-07-25T00:08:21.729Z,1.60
2023-07-25T00:10:52.137Z,1.83
2023-07-25T00:13:25.828Z,2.17
2023-07-25T00:15:55.861Z,1.65
2023-07-25T00:18:26.269Z,1.85
2023-07-25T00:20:56.658Z,1.73
2023-07-25T00:23:26.984Z,1.73
2023-07-25T00:25:57.311Z,1.90
2023-07-25T00:28:29.918Z,1.58
2023-07-25T00:30:59.930Z,1.63
2023-07-25T00:33:30.018Z,2.38
2023-07-25T00:36:00.075Z,2.05
2023-07-25T00:38:30.106Z,1.95
2023-07-25T00:41:00.155Z,1.88
2023-07-25T00:43:32.875Z,1.77
2023-07-25T00:46:03.495Z,2.25
2023-07-25T00:48:34.001Z,1.48
2023-07-25T00:51:04.221Z,2.00
2023-07-25T00:53:34.380Z,2.03
2023-07-25T00:56:05.205Z,1.90
2023-07-25T00:58:37.884Z,2.25
2023-07-25T01:01:09.370Z,2.30
2023-07-25T01:03:42.083Z,2.38
2023-07-25T01:06:16.522Z,1.98
2023-07-25T01:08:53.063Z,2.47
2023-07-25T01:11:23.970Z,2.17
2023-07-25T01:13:56.712Z,1.85
2023-07-25T01:16:28.747Z,1.70
2023-07-25T01:19:00.066Z,2.20
2023-07-25T01:21:31.605Z,2.30
2023-07-25T01:24:06.695Z,2.53
2023-07-25T01:26:36.910Z,2.47
2023-07-25T01:29:07.060Z,2.08
2023-07-25T01:31:37.137Z,2.20
2023-07-25T01:34:07.236Z,2.00
2023-07-25T01:36:37.303Z,2.40
2023-07-25T01:39:10.465Z,2.17
2023-07-25T01:41:42.123Z,2.28
2023-07-25T01:44:12.520Z,2.10
2023-07-25T01:46:43.869Z,2.35
2023-07-25T01:49:14.540Z,1.95
2023-07-25T01:51:44.583Z,2.05
2023-07-25T01:54:18.024Z,1.77
2023-07-25T01:56:50.774Z,2.00
2023-07-25T01:59:21.720Z,1.83
2023-07-25T02:01:51.922Z,2.22
2023-07-25T02:04:22.416Z,1.85
2023-07-25T02:06:52.859Z,1.83
2023-07-25T02:09:25.590Z,1.95
2023-07-25T02:11:55.641Z,2.17
2023-07-25T02:14:26.510Z,1.67
2023-07-25T02:16:57.135Z,2.15
2023-07-25T02:19:27.228Z,1.83
2023-07-25T02:21:58.149Z,2.35
2023-07-25T02:24:30.771Z,1.60
2023-07-25T02:27:01.241Z,1.50
2023-07-25T02:29:31.276Z,2.55
2023-07-25T02:32:01.367Z,1.88
2023-07-25T02:34:31.455Z,1.60
2023-07-25T02:37:01.802Z,2.15
2023-07-25T02:39:34.480Z,2.33
2023-07-25T02:42:04.543Z,2.05
2023-07-25T02:44:34.736Z,2.20
2023-07-25T02:47:05.664Z,2.20
2023-07-25T02:49:35.840Z,2.28
2023-07-25T02:52:06.115Z,2.40
2023-07-25T02:54:38.735Z,2.17
2023-07-25T02:57:10.168Z,2.38
2023-07-25T02:59:40.482Z,2.15
2023-07-25T03:02:11.672Z,2.10
2023-07-25T03:04:41.800Z,2.13
2023-07-25T03:07:11.945Z,2.63
2023-07-25T03:09:45.452Z,2.15
2023-07-25T03:12:15.926Z,2.17
2023-07-25T03:14:46.191Z,2.22
2023-07-25T03:17:16.281Z,2.50
2023-07-25T03:19:46.557Z,2.55
2023-07-25T03:22:16.885Z,2.38
2023-07-25T03:24:49.616Z,2.45
2023-07-25T03:27:26.342Z,2.13
2023-07-25T03:29:56.441Z,2.60
2023-07-25T03:32:26.591Z,2.28
2023-07-25T03:34:57.006Z,2.30
2023-07-25T03:37:27.037Z,2.40
2023-07-25T03:39:59.968Z,2.83
2023-07-25T03:42:30.057Z,2.38
2023-07-25T03:45:00.316Z,3.10
2023-07-25T03:47:30.446Z,2.50
2023-07-25T03:50:00.554Z,2.53
2023-07-25T03:52:30.840Z,2.95
2023-07-25T03:55:03.503Z,2.88
2023-07-25T03:57:34.240Z,2.40
2023-07-25T04:00:04.327Z,2.90
2023-07-25T04:02:42.035Z,2.22
2023-07-25T04:05:12.583Z,2.22
2023-07-25T04:07:42.777Z,2.97
2023-07-25T04:10:15.454Z,1.98
2023-07-25T04:12:46.355Z,3.15
2023-07-25T04:15:16.384Z,2.58
2023-07-25T04:17:46.771Z,2.47
2023-07-25T04:20:17.206Z,2.63
2023-07-25T04:22:47.287Z,2.33
2023-07-25T04:25:20.146Z,2.67
2023-07-25T04:27:50.504Z,2.65
2023-07-25T04:30:20.618Z,2.45
2023-07-25T04:32:50.989Z,2.60
2023-07-25T04:35:21.513Z,2.90
2023-07-25T04:37:51.601Z,2.50
2023-07-25T04:40:24.271Z,2.70
2023-07-25T04:42:54.768Z,2.13
2023-07-25T04:45:25.178Z,2.90
2023-07-25T04:47:56.030Z,2.75
2023-07-25T04:50:26.710Z,2.60
2023-07-25T04:52:57.154Z,2.40
2023-07-25T04:55:29.917Z,2.75
2023-07-25T04:58:00.002Z,2.97
2023-07-25T05:00:30.977Z,2.45
2023-07-25T05:03:01.475Z,2.80
2023-07-25T05:05:31.638Z,2.85
2023-07-25T05:08:02.025Z,2.78
2023-07-25T05:10:36.514Z,3.15
2023-07-25T05:13:06.829Z,3.20
2023-07-25T05:15:39.192Z,3.05
2023-07-25T05:18:09.537Z,2.67
2023-07-25T05:20:39.678Z,3.38
2023-07-25T05:23:10.040Z,3.42
2023-07-25T05:25:42.702Z,2.70
2023-07-25T05:28:13.086Z,2.75
2023-07-25T05:30:43.150Z,2.88
2023-07-25T05:33:13.196Z,3.15
2023-07-25T05:35:43.262Z,2.92
2023-07-25T05:38:13.351Z,2.75
2023-07-25T05:40:46.026Z,2.72
2023-07-25T05:43:17.908Z,2.65
2023-07-25T05:45:48.070Z,2.33
2023-07-25T05:48:18.229Z,2.53
2023-07-25T05:50:53.598Z,2.63
2023-07-25T05:53:24.030Z,2.75
2023-07-25T05:55:56.737Z,2.60
2023-07-25T05:58:27.095Z,2.72
2023-07-25T06:00:57.569Z,2.25
2023-07-25T06:03:27.977Z,2.63
2023-07-25T06:05:58.350Z,2.67
2023-07-25T06:08:28.418Z,3.17
2023-07-25T06:11:01.113Z,2.97
2023-07-25T06:13:34.757Z,2.65
2023-07-25T06:16:05.337Z,3.10
2023-07-25T06:18:35.692Z,2.58
2023-07-25T06:21:05.772Z,2.55
2023-07-25T06:23:35.883Z,2.08
2023-07-25T06:26:08.600Z,2.40
2023-07-25T06:28:38.688Z,2.50
2023-07-25T06:31:08.825Z,3.28
2023-07-25T06:33:39.359Z,2.60
2023-07-25T06:36:09.848Z,2.67
2023-07-25T06:38:39.906Z,2.50
2023-07-25T06:41:12.592Z,2.25
2023-07-25T06:43:42.963Z,2.30
2023-07-25T06:46:13.106Z,2.65
2023-07-25T06:48:43.193Z,1.83
2023-07-25T06:51:13.211Z,1.70
2023-07-25T06:53:43.816Z,1.88
2023-07-25T06:56:16.468Z,1.25
2023-07-25T06:58:46.613Z,2.10
2023-07-25T07:01:16.698Z,2.63
2023-07-25T07:03:47.064Z,2.40
2023-07-25T07:06:17.172Z,2.45
2023-07-25T07:08:47.261Z,2.38
2023-07-25T07:11:19.954Z,1.98
2023-07-25T07:13:50.314Z,2.92
2023-07-25T07:16:20.447Z,2.45
2023-07-25T07:18:52.267Z,2.25
2023-07-25T07:21:22.695Z,2.25
2023-07-25T07:23:53.048Z,2.63
2023-07-25T07:26:25.773Z,2.22
2023-07-25T07:28:55.832Z,2.17
2023-07-25T07:31:26.655Z,1.70
2023-07-25T07:33:57.017Z,1.80
2023-07-25T07:36:27.117Z,1.63
2023-07-25T07:38:57.176Z,1.65
2023-07-25T07:41:30.208Z,1.08
2023-07-25T07:44:00.497Z,1.30
2023-07-25T07:46:31.671Z,1.30
2023-07-25T07:49:02.391Z,1.45
2023-07-25T07:51:33.061Z,1.55
2023-07-25T07:54:03.379Z,1.30
2023-07-25T07:56:36.310Z,1.27
2023-07-25T07:59:06.887Z,1.00
2023-07-25T08:01:40.420Z,0.90
2023-07-25T08:04:12.422Z,0.80
2023-07-25T08:06:42.798Z,1.10
2023-07-25T08:09:12.905Z,1.00
2023-07-25T08:11:45.600Z,1.20
2023-07-25T08:14:15.955Z,1.52
2023-07-25T08:16:46.083Z,1.63
2023-07-25T08:19:16.184Z,2.00
2023-07-25T08:21:46.844Z,1.45
2023-07-25T08:24:17.254Z,1.98
2023-07-25T08:26:50.016Z,2.20
2023-07-25T08:29:20.144Z,1.98
2023-07-25T08:31:50.266Z,2.05
2023-07-25T08:34:20.630Z,2.53
2023-07-25T08:36:51.197Z,3.45
2023-07-25T08:39:21.289Z,2.95
2023-07-25T08:41:56.945Z,3.03
2023-07-25T08:44:27.346Z,3.20
2023-07-25T08:46:58.890Z,3.42
2023-07-25T08:49:33.466Z,3.50
2023-07-25T08:52:06.725Z,2.70
2023-07-25T08:54:38.681Z,3.60
2023-07-25T08:57:11.829Z,2.85
2023-07-25T08:59:42.787Z,2.57
2023-07-25T09:02:14.273Z,1.92
2023-07-25T09:04:44.754Z,1.23
2023-07-25T09:07:15.029Z,1.42
2023-07-25T09:09:45.136Z,1.67
2023-07-25T09:12:17.830Z,1.35
2023-07-25T09:14:48.072Z,1.58
2023-07-25T09:17:18.464Z,1.48
2023-07-25T09:19:49.083Z,1.27
2023-07-25T09:22:32.265Z,2.00
2023-07-25T09:25:03.048Z,0.93
2023-07-25T09:27:35.913Z,1.00
2023-07-25T09:30:15.714Z,1.42
2023-07-25T09:32:50.001Z,1.05
2023-07-25T09:35:20.606Z,1.25
2023-07-25T09:37:56.215Z,0.93
2023-07-25T09:40:26.646Z,1.15
2023-07-25T09:42:59.292Z,1.23
2023-07-25T09:45:29.763Z,0.90
2023-07-25T09:48:00.019Z,1.08
2023-07-25T09:50:30.517Z,1.10
2023-07-25T09:53:04.780Z,0.88
2023-07-25T09:55:35.153Z,1.15
2023-07-25T09:58:08.432Z,1.00
2023-07-25T10:00:38.950Z,1.10
2023-07-25T10:03:12.129Z,0.90
2023-07-25T10:05:45.936Z,1.10
2023-07-25T10:08:16.389Z,0.80
2023-07-25T10:10:46.593Z,0.85
2023-07-25T10:13:19.370Z,0.63
2023-07-25T10:15:49.853Z,0.73
2023-07-25T10:18:24.641Z,0.50
2023-07-25T10:20:55.997Z,0.50
2023-07-25T10:23:35.852Z,0.28
2023-07-25T10:26:16.176Z,0.40
2023-07-25T10:28:55.346Z,0.20
2023-07-25T10:31:27.368Z,0.55
2023-07-25T10:33:58.436Z,0.80
2023-07-25T10:36:29.638Z,0.47
2023-07-25T10:39:10.903Z,0.38
2023-07-25T10:41:41.699Z,0.63
2023-07-25T10:44:14.390Z,0.40
2023-07-25T10:46:44.798Z,0.47
2023-07-25T10:49:18.416Z,0.60
2023-07-25T10:51:53.686Z,0.50
2023-07-25T10:54:25.459Z,0.68
2023-07-25T10:57:18.640Z,0.57
2023-07-25T11:00:09.814Z,0.47
2023-07-25T11:02:42.167Z,0.50
2023-07-25T11:05:26.192Z,0.60
2023-07-25T11:07:59.430Z,0.40
2023-07-25T11:10:32.456Z,0.57
2023-07-25T11:13:04.397Z,0.32
2023-07-25T11:15:47.310Z,0.50
2023-07-25T11:18:18.150Z,0.38
2023-07-25T11:21:00.948Z,0.43
2023-07-25T11:23:31.017Z,0.30
2023-07-25T11:26:03.206Z,0.80
2023-07-25T11:28:33.772Z,0.52
2023-07-25T11:31:06.540Z,0.80
2023-07-25T11:33:41.700Z,0.60
2023-07-25T11:36:11.882Z,0.70
2023-07-25T11:38:41.990Z,1.05
2023-07-25T11:41:12.380Z,0.68
2023-07-25T11:43:45.656Z,0.77
2023-07-25T11:46:22.047Z,0.80
2023-07-25T11:48:52.470Z,0.80
2023-07-25T11:51:22.709Z,0.88
2023-07-25T11:53:53.059Z,0.80
2023-07-25T11:56:23.432Z,1.00
2023-07-25T11:58:53.621Z,0.88
2023-07-25T12:01:30.978Z,1.23
2023-07-25T12:04:01.806Z,0.80
2023-07-25T12:06:33.957Z,1.02
2023-07-25T12:09:04.790Z,0.60
2023-07-25T12:11:35.323Z,0.63
2023-07-25T12:14:06.500Z,0.85
2023-07-25T12:16:40.470Z,0.90
2023-07-25T12:19:12.925Z,0.65
2023-07-25T12:21:46.043Z,0.50
2023-07-25T12:24:18.629Z,0.65
2023-07-25T12:26:50.342Z,0.90
2023-07-25T12:29:22.662Z,0.77
2023-07-25T12:31:56.144Z,0.75
2023-07-25T12:34:26.534Z,0.90
2023-07-25T12:36:56.808Z,0.63
2023-07-25T12:39:27.284Z,0.80
2023-07-25T12:41:57.409Z,0.82
2023-07-25T12:44:27.746Z,0.93
2023-07-25T12:47:00.389Z,1.45
2023-07-25T12:49:30.750Z,1.02
2023-07-25T12:52:01.985Z,1.20
2023-07-25T12:54:32.355Z,1.45
2023-07-25T12:57:02.381Z,1.40
2023-07-25T12:59:32.505Z,1.10
2023-07-25T13:02:05.246Z,1.30
2023-07-25T13:04:35.430Z,0.90
2023-07-25T13:07:05.590Z,0.75
2023-07-25T13:09:35.955Z,0.95
2023-07-25T13:12:06.339Z,1.17
2023-07-25T13:14:36.440Z,0.57
2023-07-25T13:17:09.193Z,0.75
2023-07-25T13:19:39.272Z,1.13
2023-07-25T13:22:09.888Z,0.55
2023-07-25T13:24:40.003Z,1.05
2023-07-25T13:27:10.460Z,1.35
2023-07-25T13:29:41.187Z,1.02
2023-07-25T13:32:14.178Z,1.00
2023-07-25T13:34:44.513Z,0.63
2023-07-25T13:37:14.567Z,0.60
2023-07-25T13:39:44.686Z,0.60
2023-07-25T13:42:14.808Z,0.47
2023-07-25T13:44:44.875Z,0.30
2023-07-25T13:47:17.568Z,0.30
2023-07-25T13:49:47.917Z,0.50
2023-07-25T13:52:17.988Z,0.40
2023-07-25T13:54:48.177Z,0.50
2023-07-25T13:57:18.252Z,0.47
2023-07-25T13:59:48.348Z,0.47
2023-07-25T14:02:21.134Z,0.50
2023-07-25T14:04:51.239Z,0.38
2023-07-25T14:07:22.027Z,0.50
2023-07-25T14:09:52.097Z,0.35
2023-07-25T14:12:22.173Z,0.63
2023-07-25T14:14:54.931Z,0.43
2023-07-25T14:17:29.813Z,0.60
2023-07-25T14:20:00.328Z,0.50
2023-07-25T14:22:30.420Z,0.30
2023-07-25T14:25:00.665Z,0.50
2023-07-25T14:27:31.041Z,0.30
2023-07-25T14:30:01.111Z,0.25
2023-07-25T14:32:33.793Z,0.82
2023-07-25T14:35:07.237Z,0.40
2023-07-25T14:37:53.595Z,0.20
2023-07-25T14:40:25.309Z,0.25
2023-07-25T14:42:55.768Z,0.35
2023-07-25T14:45:26.005Z,0.40
2023-07-25T14:47:59.439Z,0.45
2023-07-25T14:50:29.946Z,0.32
2023-07-25T14:53:00.096Z,0.30
2023-07-25T14:55:30.152Z,0.22
2023-07-25T14:58:00.520Z,0.40
2023-07-25T15:00:30.605Z,0.60
2023-07-25T15:03:04.230Z,0.40
2023-07-25T15:08:04.452Z,0.30
2023-07-25T15:10:37.880Z,0.30
2023-07-25T15:13:10.032Z,0.50
2023-07-25T15:15:40.393Z,0.47
2023-07-25T15:18:13.060Z,0.32
2023-07-25T15:20:43.208Z,0.50
2023-07-25T15:23:13.548Z,0.52
2023-07-25T15:25:44.024Z,0.20
2023-07-25T15:28:14.409Z,0.30
2023-07-25T15:30:44.481Z,0.20
2023-07-25T15:33:17.204Z,0.10
2023-07-25T15:35:47.570Z,0.10
2023-07-25T15:38:18.142Z,0.30
2023-07-25T15:40:48.242Z,0.20
2023-07-25T15:43:18.354Z,0.10
2023-07-25T15:45:48.424Z,0.10
2023-07-25T15:48:21.065Z,0.10
2023-07-25T15:50:51.141Z,0.00
2023-07-25T15:53:21.748Z,0.20
2023-07-25T15:55:52.102Z,0.20
2023-07-25T15:58:22.454Z,0.10
2023-07-25T16:00:52.664Z,0.20
2023-07-25T16:03:25.434Z,0.03
2023-07-25T16:05:55.628Z,0.00
2023-07-25T16:08:25.983Z,0.10
2023-07-25T16:10:56.308Z,0.10
2023-07-25T16:13:26.333Z,0.10
2023-07-25T16:15:56.449Z,0.00
2023-07-25T16:18:29.037Z,0.00
2023-07-25T16:20:59.135Z,0.28
2023-07-25T16:23:29.289Z,0.28
2023-07-25T16:26:02.289Z,0.00
2023-07-25T16:28:34.812Z,0.10
2023-07-25T16:31:30.208Z,0.10
2023-07-25T16:33:58.298Z,0.20
2023-07-25T16:36:28.647Z,0.00
2023-07-25T16:38:58.708Z,0.00
2023-07-25T16:41:29.095Z,0.10
2023-07-25T16:43:59.396Z,0.00
2023-07-25T16:46:29.531Z,0.10
2023-07-25T16:49:02.201Z,0.30
2023-07-25T16:51:32.415Z,0.00
2023-07-25T16:54:03.075Z,0.00
2023-07-25T16:56:33.426Z,0.08
2023-07-25T16:59:03.855Z,0.10
2023-07-25T17:01:34.145Z,0.10
2023-07-25T17:04:07.060Z,0.13
2023-07-25T17:06:37.404Z,0.20
2023-07-25T17:09:07.532Z,0.32
2023-07-25T17:11:37.581Z,0.20
2023-07-25T17:14:07.682Z,0.25
2023-07-25T17:16:38.173Z,0.30
2023-07-25T17:19:10.824Z,0.50
2023-07-25T17:21:41.875Z,0.15
2023-07-25T17:24:12.326Z,0.40
2023-07-25T17:26:42.421Z,0.43
2023-07-25T17:29:13.388Z,0.45
2023-07-25T17:31:43.770Z,0.30
2023-07-25T17:34:16.800Z,0.30
2023-07-25T17:36:47.555Z,0.20
2023-07-25T17:39:18.104Z,0.38
2023-07-25T17:41:48.522Z,0.47
2023-07-25T17:44:18.645Z,0.65
2023-07-25T17:46:49.062Z,0.40
2023-07-25T17:49:21.725Z,0.30
2023-07-25T17:51:51.799Z,0.85
2023-07-25T17:54:21.907Z,0.43
2023-07-25T17:56:51.971Z,0.40
2023-07-25T17:59:22.034Z,0.35
2023-07-25T18:01:52.130Z,0.40
2023-07-25T18:04:24.898Z,0.68
2023-07-25T18:06:54.956Z,0.52
2023-07-25T18:09:25.384Z,0.50
2023-07-25T18:11:55.857Z,0.40
2023-07-25T18:14:26.145Z,0.60
2023-07-25T18:16:56.208Z,0.30
2023-07-25T18:19:28.942Z,0.50
2023-07-25T18:21:59.702Z,0.50
2023-07-25T18:24:30.071Z,0.38
2023-07-25T18:27:00.813Z,0.50
2023-07-25T18:29:30.826Z,0.40
2023-07-25T18:32:00.854Z,0.47
2023-07-25T18:34:33.480Z,0.55
2023-07-25T18:37:03.818Z,0.60
2023-07-25T18:39:34.372Z,0.85
2023-07-25T18:42:04.576Z,0.82
2023-07-25T18:44:34.723Z,0.40
2023-07-25T18:47:05.179Z,0.57
2023-07-25T18:49:38.168Z,0.52
2023-07-25T18:52:09.068Z,0.40
2023-07-25T18:54:39.430Z,0.70
2023-07-25T18:57:10.615Z,0.60
2023-07-25T18:59:41.188Z,0.73
2023-07-25T19:02:11.319Z,0.57
2023-07-25T19:04:44.594Z,0.50
2023-07-25T19:07:16.308Z,0.55
2023-07-25T19:09:46.772Z,0.70
2023-07-25T19:12:16.916Z,0.30
2023-07-25T19:14:46.963Z,0.60
2023-07-25T19:17:17.381Z,0.82
2023-07-25T19:19:50.055Z,0.50
2023-07-25T19:22:20.575Z,0.40
2023-07-25T19:24:50.938Z,0.38
2023-07-25T19:27:21.113Z,0.63
2023-07-25T19:29:51.149Z,0.60
2023-07-25T19:32:21.587Z,0.60
2023-07-25T19:34:54.575Z,0.68
2023-07-25T19:37:24.631Z,0.50
2023-07-25T19:39:55.364Z,0.70
2023-07-25T19:42:25.504Z,0.57
2023-07-25T19:44:55.513Z,0.50
2023-07-25T19:47:25.613Z,0.80
2023-07-25T19:49:58.283Z,0.75
2023-07-25T19:52:28.352Z,0.80
2023-07-25T19:54:58.398Z,0.77
2023-07-25T19:57:28.776Z,0.90
2023-07-25T19:59:58.832Z,0.95
2023-07-25T20:02:29.292Z,1.00
2023-07-25T20:05:02.169Z,0.60
2023-07-25T20:07:32.310Z,0.60
2023-07-25T20:10:02.942Z,0.57
2023-07-25T20:12:33.579Z,0.60
2023-07-25T20:15:03.756Z,0.85
2023-07-25T20:17:33.922Z,0.90
2023-07-25T20:20:07.435Z,1.00
2023-07-25T20:22:38.053Z,1.40
2023-07-25T20:25:11.329Z,0.50
2023-07-25T20:27:41.756Z,0.77
2023-07-25T20:30:13.094Z,0.73
2023-07-25T20:32:43.619Z,0.90
2023-07-25T20:35:16.528Z,1.30
2023-07-25T20:37:46.580Z,0.80
2023-07-25T20:40:17.125Z,0.93
2023-07-25T20:42:47.471Z,0.82
2023-07-25T20:45:17.614Z,0.98
2023-07-25T20:47:48.837Z,1.10
2023-07-25T20:50:21.560Z,0.70
2023-07-25T20:52:53.709Z,0.80
2023-07-25T20:55:24.709Z,0.70
2023-07-25T20:57:54.808Z,0.63
2023-07-25T21:00:25.130Z,0.90
2023-07-25T21:02:55.363Z,0.90
2023-07-25T21:05:28.406Z,0.50
2023-07-25T21:07:58.439Z,0.60
2023-07-25T21:10:28.614Z,0.85
2023-07-25T21:12:58.976Z,0.90
2023-07-25T21:15:29.069Z,1.27
2023-07-25T21:18:12.265Z,0.90
2023-07-25T21:23:16.141Z,0.85
2023-07-25T21:25:46.525Z,1.35
2023-07-25T21:28:24.954Z,1.35
2023-07-25T21:30:55.287Z,1.20
2023-07-25T21:33:26.960Z,1.17
2023-07-25T21:36:16.376Z,1.08
2023-07-25T21:38:46.841Z,0.73
2023-07-25T21:41:17.901Z,1.20
2023-07-25T21:43:48.290Z,1.10
2023-07-25T21:46:18.573Z,0.85
2023-07-25T21:48:49.324Z,0.90
2023-07-25T21:51:22.002Z,1.02
2023-07-25T21:53:52.104Z,0.85
2023-07-25T21:56:22.457Z,1.20
2023-07-25T21:58:52.765Z,1.23
2023-07-25T22:01:22.966Z,0.93
2023-07-25T22:03:53.090Z,1.13
2023-07-25T22:06:25.854Z,0.90
2023-07-25T22:08:55.902Z,1.33
2023-07-25T22:11:26.059Z,1.10
2023-07-25T22:13:56.446Z,0.85
2023-07-25T22:16:26.634Z,1.05
2023-07-25T22:18:56.688Z,0.90
2023-07-25T22:21:29.362Z,1.80
2023-07-25T22:23:59.761Z,0.85
2023-07-25T22:26:30.122Z,1.63
2023-07-25T22:29:00.812Z,1.08
2023-07-25T22:31:30.946Z,1.15
2023-07-25T22:34:01.109Z,1.13
2023-07-25T22:36:34.082Z,1.17
2023-07-25T22:39:04.816Z,1.25
2023-07-25T22:41:34.860Z,1.08
2023-07-25T22:44:05.068Z,0.85
2023-07-25T22:46:35.767Z,0.98
2023-07-25T22:49:05.832Z,1.27
2023-07-25T22:51:38.527Z,1.42
2023-07-25T22:54:08.900Z,1.63
2023-07-25T22:56:39.001Z,1.60
2023-07-25T22:59:09.083Z,1.80
2023-07-25T23:01:39.291Z,1.30
2023-07-25T23:04:09.455Z,1.73
2023-07-25T23:06:43.392Z,1.83
2023-07-25T23:09:13.782Z,1.45
2023-07-25T23:11:43.853Z,1.55
2023-07-25T23:14:13.991Z,1.58
2023-07-25T23:16:44.050Z,1.63
2023-07-25T23:19:14.210Z,1.58
2023-07-25T23:21:47.084Z,1.85
2023-07-25T23:24:17.455Z,1.65
2023-07-25T23:26:47.565Z,1.50
2023-07-25T23:29:17.716Z,2.25
2023-07-25T23:31:47.749Z,1.60
2023-07-25T23:34:19.904Z,2.20
2023-07-25T23:36:52.510Z,2.10
2023-07-25T23:39:22.538Z,2.10
2023-07-25T23:41:52.571Z,2.03
2023-07-25T23:44:22.990Z,2.13
2023-07-25T23:46:53.085Z,2.50
2023-07-25T23:49:23.517Z,2.15
2023-07-25T23:51:56.516Z,2.28
2023-07-25T23:54:26.865Z,2.20
2023-07-25T23:56:56.921Z,2.47
2023-07-25T23:59:27.107Z,2.15
